Aeroporto :
LOGIN :

Iscrizione | Disclaimer

   EN    FR    IT 

 










Sommario :    VFR   VFR Marginale   IFR   IFR Intensivo   IFR Molto Intensivo
Visibilità : 
Base nubi : 
>= 8 km
>= 3000ft
5 / 8 km
1000 / 3000 ft
1500m / 5 km
500 / 1000 ft
800 / 1500m
200 / 500 ft
< 800m
< 200 ft
Simboli :   Temporali  Nebbia  Neve Forte  Precipitazioni Forti  Vento > 20 kt
SIGMETs :   Varie  Temporali  Ghiacco  Turbolenza  Onda orograficha  Ceneri Vulcaniche






- Altitudine del aeroporto : 468 ft
- Codice IATA : GRO


LEGE - Girona Costa Brava

ULTIMO METAR :
  • 291930Z VRB01KT 9999 BKN011 10/09 Q1022

METARs OBSOLETI :
  • 291900Z VRB02KT 9999 BKN010 10/09 Q1022
  • 291830Z VRB02KT 9999 BKN012 10/09 Q1021
  • 291800Z VRB02KT 9999 SCT012 10/09 Q1021
  • 291730Z 21003KT 190V250 CAVOK 11/10 Q1021
  • 291700Z 21005KT CAVOK 11/10 Q1021

TAF AMD TAF LEGE
Valido dal 29 a 18 ore il 30 a 18 ore UTC


291833Z 2918/3018 VRB03KT 9999 BKN010 TX16/3013Z TN04/3006Z
TEMPO 2920/3011 3000 BR
PROB40
TEMPO 3000/3010 0500 BCFG VV002



MetMap, La meteo Aeronautica in un colpo d'occhio ! - Copyright ORBIFLY Dicembre 2007 - Disclaimer

ORBIFLY MET'MAP TEAM :

Programmazione e sviluppo : Alexandra Zaïnal
Concezione : Baudouin d'Aumeries
Aiuto per la programmazione : Marc-Olivier Méhu
Supporto tecnico e logistico : Manuel Goepfert
Aiuto per la traduzione : Arnaldo La Scala

Contatto : metmap@orbifly.com




FONTI E CREDITI :

   NOAA